sensor_id;sensor_type;location;lat;lon;timestamp;temperature;humidity
10263;DHT22;5177;50.068;8.156;2022-12-20T00:02:15;1.70;99.90
10263;DHT22;5177;50.068;8.156;2022-12-20T00:04:41;1.70;99.90
10263;DHT22;5177;50.068;8.156;2022-12-20T00:07:06;1.70;99.90
10263;DHT22;5177;50.068;8.156;2022-12-20T00:09:32;1.70;99.90
10263;DHT22;5177;50.068;8.156;2022-12-20T00:11:58;1.70;99.90
10263;DHT22;5177;50.068;8.156;2022-12-20T00:14:42;1.70;99.90
10263;DHT22;5177;50.068;8.156;2022-12-20T00:17:07;1.70;99.90
10263;DHT22;5177;50.068;8.156;2022-12-20T00:19:32;1.70;99.90
10263;DHT22;5177;50.068;8.156;2022-12-20T00:21:58;1.80;99.90
10263;DHT22;5177;50.068;8.156;2022-12-20T00:24:23;1.80;99.90
10263;DHT22;5177;50.068;8.156;2022-12-20T00:26:49;1.80;99.90
10263;DHT22;5177;50.068;8.156;2022-12-20T00:29:15;1.80;99.90
10263;DHT22;5177;50.068;8.156;2022-12-20T00:31:40;1.80;99.90
10263;DHT22;5177;50.068;8.156;2022-12-20T00:34:06;1.80;99.90
10263;DHT22;5177;50.068;8.156;2022-12-20T00:36:31;1.80;99.90
10263;DHT22;5177;50.068;8.156;2022-12-20T00:38:58;1.80;99.90
10263;DHT22;5177;50.068;8.156;2022-12-20T00:41:24;1.80;99.90
10263;DHT22;5177;50.068;8.156;2022-12-20T00:43:50;1.80;99.90
10263;DHT22;5177;50.068;8.156;2022-12-20T00:46:17;1.80;99.90
10263;DHT22;5177;50.068;8.156;2022-12-20T00:48:42;1.80;99.90
10263;DHT22;5177;50.068;8.156;2022-12-20T00:51:12;1.80;99.90
10263;DHT22;5177;50.068;8.156;2022-12-20T00:53:38;1.80;99.90
10263;DHT22;5177;50.068;8.156;2022-12-20T00:56:04;1.70;99.90
10263;DHT22;5177;50.068;8.156;2022-12-20T00:58:31;1.70;99.90
10263;DHT22;5177;50.068;8.156;2022-12-20T01:00:56;1.70;99.90
10263;DHT22;5177;50.068;8.156;2022-12-20T01:03:23;1.70;99.90
10263;DHT22;5177;50.068;8.156;2022-12-20T01:05:59;1.80;99.90
10263;DHT22;5177;50.068;8.156;2022-12-20T01:08:25;1.70;99.90
10263;DHT22;5177;50.068;8.156;2022-12-20T01:11:01;1.70;99.90
10263;DHT22;5177;50.068;8.156;2022-12-20T01:13:27;1.70;99.90
10263;DHT22;5177;50.068;8.156;2022-12-20T01:15:52;1.70;99.90
10263;DHT22;5177;50.068;8.156;2022-12-20T01:18:18;1.80;99.90
10263;DHT22;5177;50.068;8.156;2022-12-20T01:20:44;1.80;99.90
10263;DHT22;5177;50.068;8.156;2022-12-20T01:23:10;1.80;99.90
10263;DHT22;5177;50.068;8.156;2022-12-20T01:25:35;1.80;99.90
10263;DHT22;5177;50.068;8.156;2022-12-20T01:28:01;1.80;99.90
10263;DHT22;5177;50.068;8.156;2022-12-20T01:30:26;1.80;99.90
10263;DHT22;5177;50.068;8.156;2022-12-20T01:32:52;1.80;99.90
10263;DHT22;5177;50.068;8.156;2022-12-20T01:35:17;1.80;99.90
10263;DHT22;5177;50.068;8.156;2022-12-20T01:37:43;1.80;99.90
10263;DHT22;5177;50.068;8.156;2022-12-20T01:40:08;1.80;99.90
10263;DHT22;5177;50.068;8.156;2022-12-20T01:42:35;1.80;99.90
10263;DHT22;5177;50.068;8.156;2022-12-20T01:45:00;1.80;99.90
10263;DHT22;5177;50.068;8.156;2022-12-20T01:47:26;1.80;99.90
10263;DHT22;5177;50.068;8.156;2022-12-20T01:49:52;1.80;99.90
10263;DHT22;5177;50.068;8.156;2022-12-20T01:52:34;1.80;99.90
10263;DHT22;5177;50.068;8.156;2022-12-20T01:55:05;1.80;99.90
10263;DHT22;5177;50.068;8.156;2022-12-20T01:57:33;1.80;99.90
10263;DHT22;5177;50.068;8.156;2022-12-20T02:00:00;1.70;99.90
10263;DHT22;5177;50.068;8.156;2022-12-20T02:02:26;1.70;99.90
10263;DHT22;5177;50.068;8.156;2022-12-20T02:04:51;1.70;99.90
10263;DHT22;5177;50.068;8.156;2022-12-20T02:07:18;1.70;99.90
10263;DHT22;5177;50.068;8.156;2022-12-20T02:09:44;1.60;99.90
10263;DHT22;5177;50.068;8.156;2022-12-20T02:12:23;1.60;99.90
10263;DHT22;5177;50.068;8.156;2022-12-20T02:27:51;1.60;99.90
10263;DHT22;5177;50.068;8.156;2022-12-20T02:30:21;1.60;99.90
10263;DHT22;5177;50.068;8.156;2022-12-20T02:32:48;1.60;99.90
10263;DHT22;5177;50.068;8.156;2022-12-20T02:35:18;1.60;99.90
10263;DHT22;5177;50.068;8.156;2022-12-20T02:37:48;1.60;99.90
10263;DHT22;5177;50.068;8.156;2022-12-20T02:40:13;1.60;99.90
10263;DHT22;5177;50.068;8.156;2022-12-20T02:42:39;1.60;99.90
10263;DHT22;5177;50.068;8.156;2022-12-20T02:45:06;1.60;99.90
10263;DHT22;5177;50.068;8.156;2022-12-20T02:47:48;1.60;99.90
10263;DHT22;5177;50.068;8.156;2022-12-20T02:50:19;1.50;99.90
10263;DHT22;5177;50.068;8.156;2022-12-20T02:52:45;1.60;99.90
10263;DHT22;5177;50.068;8.156;2022-12-20T02:55:10;1.60;99.90
10263;DHT22;5177;50.068;8.156;2022-12-20T03:00:11;1.60;99.90
10263;DHT22;5177;50.068;8.156;2022-12-20T03:02:38;1.60;99.90
10263;DHT22;5177;50.068;8.156;2022-12-20T03:05:38;1.60;99.90
10263;DHT22;5177;50.068;8.156;2022-12-20T03:08:07;1.60;99.90
10263;DHT22;5177;50.068;8.156;2022-12-20T03:10:33;1.60;99.90
10263;DHT22;5177;50.068;8.156;2022-12-20T03:12:58;1.70;99.90
10263;DHT22;5177;50.068;8.156;2022-12-20T03:15:24;1.70;99.90
10263;DHT22;5177;50.068;8.156;2022-12-20T03:17:49;1.70;99.90
10263;DHT22;5177;50.068;8.156;2022-12-20T03:20:15;1.70;99.90
10263;DHT22;5177;50.068;8.156;2022-12-20T03:22:41;1.70;99.90
10263;DHT22;5177;50.068;8.156;2022-12-20T03:25:06;1.70;99.90
10263;DHT22;5177;50.068;8.156;2022-12-20T03:27:32;1.70;99.90
10263;DHT22;5177;50.068;8.156;2022-12-20T03:29:58;1.80;99.90
10263;DHT22;5177;50.068;8.156;2022-12-20T03:32:23;1.80;99.90
10263;DHT22;5177;50.068;8.156;2022-12-20T03:34:49;1.80;99.90
10263;DHT22;5177;50.068;8.156;2022-12-20T03:37:14;1.80;99.90
10263;DHT22;5177;50.068;8.156;2022-12-20T03:39:40;1.80;99.90
10263;DHT22;5177;50.068;8.156;2022-12-20T03:42:06;1.80;99.90
10263;DHT22;5177;50.068;8.156;2022-12-20T03:44:31;1.80;99.90
10263;DHT22;5177;50.068;8.156;2022-12-20T03:46:57;1.80;99.90
10263;DHT22;5177;50.068;8.156;2022-12-20T03:49:22;1.80;99.90
10263;DHT22;5177;50.068;8.156;2022-12-20T03:51:48;1.80;99.90
10263;DHT22;5177;50.068;8.156;2022-12-20T03:54:13;1.80;99.90
10263;DHT22;5177;50.068;8.156;2022-12-20T03:56:38;1.80;99.90
10263;DHT22;5177;50.068;8.156;2022-12-20T03:59:04;1.80;99.90
10263;DHT22;5177;50.068;8.156;2022-12-20T04:01:30;1.80;99.90
10263;DHT22;5177;50.068;8.156;2022-12-20T04:03:55;1.80;99.90
10263;DHT22;5177;50.068;8.156;2022-12-20T04:06:21;1.80;99.90
10263;DHT22;5177;50.068;8.156;2022-12-20T04:08:47;1.80;99.90
10263;DHT22;5177;50.068;8.156;2022-12-20T04:11:12;1.80;99.90
10263;DHT22;5177;50.068;8.156;2022-12-20T04:13:41;1.80;99.90
10263;DHT22;5177;50.068;8.156;2022-12-20T04:16:07;1.80;99.90
10263;DHT22;5177;50.068;8.156;2022-12-20T04:18:32;1.80;99.90
10263;DHT22;5177;50.068;8.156;2022-12-20T04:21:00;1.90;99.90
10263;DHT22;5177;50.068;8.156;2022-12-20T04:23:26;1.90;99.90
10263;DHT22;5177;50.068;8.156;2022-12-20T04:25:52;1.90;99.90
10263;DHT22;5177;50.068;8.156;2022-12-20T04:28:17;1.90;99.90
10263;DHT22;5177;50.068;8.156;2022-12-20T04:30:43;1.90;99.90
10263;DHT22;5177;50.068;8.156;2022-12-20T04:33:08;1.90;99.90
10263;DHT22;5177;50.068;8.156;2022-12-20T04:35:34;1.90;99.90
10263;DHT22;5177;50.068;8.156;2022-12-20T04:38:00;2.00;99.90
10263;DHT22;5177;50.068;8.156;2022-12-20T04:40:26;2.00;99.90
10263;DHT22;5177;50.068;8.156;2022-12-20T04:42:51;2.00;99.90
10263;DHT22;5177;50.068;8.156;2022-12-20T04:45:17;2.00;99.90
10263;DHT22;5177;50.068;8.156;2022-12-20T04:47:42;2.00;99.90
10263;DHT22;5177;50.068;8.156;2022-12-20T04:50:07;2.00;99.90
10263;DHT22;5177;50.068;8.156;2022-12-20T04:52:33;2.00;99.90
10263;DHT22;5177;50.068;8.156;2022-12-20T04:55:17;2.00;99.90
10263;DHT22;5177;50.068;8.156;2022-12-20T04:57:43;2.00;99.90
10263;DHT22;5177;50.068;8.156;2022-12-20T05:00:08;2.00;99.90
10263;DHT22;5177;50.068;8.156;2022-12-20T05:02:34;2.00;99.90
10263;DHT22;5177;50.068;8.156;2022-12-20T05:04:59;2.10;99.90
10263;DHT22;5177;50.068;8.156;2022-12-20T05:07:25;2.00;99.90
10263;DHT22;5177;50.068;8.156;2022-12-20T05:09:51;2.10;99.90
10263;DHT22;5177;50.068;8.156;2022-12-20T05:12:16;2.10;99.90
10263;DHT22;5177;50.068;8.156;2022-12-20T05:14:41;2.10;99.90
10263;DHT22;5177;50.068;8.156;2022-12-20T05:17:07;2.10;99.90
10263;DHT22;5177;50.068;8.156;2022-12-20T05:19:34;2.10;99.90
10263;DHT22;5177;50.068;8.156;2022-12-20T05:21:59;2.10;99.90
10263;DHT22;5177;50.068;8.156;2022-12-20T05:24:43;2.10;99.90
10263;DHT22;5177;50.068;8.156;2022-12-20T05:30:31;2.10;99.90
10263;DHT22;5177;50.068;8.156;2022-12-20T05:32:56;2.10;99.90
10263;DHT22;5177;50.068;8.156;2022-12-20T05:35:22;2.10;99.90
10263;DHT22;5177;50.068;8.156;2022-12-20T05:37:47;2.10;99.90
10263;DHT22;5177;50.068;8.156;2022-12-20T05:40:13;2.10;99.90
10263;DHT22;5177;50.068;8.156;2022-12-20T05:42:40;2.10;99.90
10263;DHT22;5177;50.068;8.156;2022-12-20T05:45:05;2.10;99.90
10263;DHT22;5177;50.068;8.156;2022-12-20T05:47:31;2.00;99.90
10263;DHT22;5177;50.068;8.156;2022-12-20T05:49:58;2.00;99.90
10263;DHT22;5177;50.068;8.156;2022-12-20T05:52:24;2.00;99.90
10263;DHT22;5177;50.068;8.156;2022-12-20T05:54:49;2.10;99.90
10263;DHT22;5177;50.068;8.156;2022-12-20T05:57:15;2.10;99.90
10263;DHT22;5177;50.068;8.156;2022-12-20T05:59:40;2.10;99.90
10263;DHT22;5177;50.068;8.156;2022-12-20T06:02:06;2.10;99.90
10263;DHT22;5177;50.068;8.156;2022-12-20T06:04:32;2.10;99.90
10263;DHT22;5177;50.068;8.156;2022-12-20T06:06:57;2.10;99.90
10263;DHT22;5177;50.068;8.156;2022-12-20T06:09:24;2.10;99.90
10263;DHT22;5177;50.068;8.156;2022-12-20T06:11:49;2.20;99.90
10263;DHT22;5177;50.068;8.156;2022-12-20T06:14:15;2.10;99.90
10263;DHT22;5177;50.068;8.156;2022-12-20T06:16:40;2.10;99.90
10263;DHT22;5177;50.068;8.156;2022-12-20T06:19:06;2.10;99.90
10263;DHT22;5177;50.068;8.156;2022-12-20T06:21:32;2.10;99.90
10263;DHT22;5177;50.068;8.156;2022-12-20T06:23:57;2.10;99.90
10263;DHT22;5177;50.068;8.156;2022-12-20T06:26:23;2.10;99.90
10263;DHT22;5177;50.068;8.156;2022-12-20T06:28:49;2.10;99.90
10263;DHT22;5177;50.068;8.156;2022-12-20T06:31:17;2.10;99.90
10263;DHT22;5177;50.068;8.156;2022-12-20T06:33:42;2.20;99.90
10263;DHT22;5177;50.068;8.156;2022-12-20T06:36:08;2.10;99.90
10263;DHT22;5177;50.068;8.156;2022-12-20T06:38:33;2.10;99.90
10263;DHT22;5177;50.068;8.156;2022-12-20T06:40:59;2.10;99.90
10263;DHT22;5177;50.068;8.156;2022-12-20T06:43:24;2.30;99.90
10263;DHT22;5177;50.068;8.156;2022-12-20T06:45:50;2.10;99.90
10263;DHT22;5177;50.068;8.156;2022-12-20T06:48:15;2.10;99.90
10263;DHT22;5177;50.068;8.156;2022-12-20T06:50:41;2.30;99.90
10263;DHT22;5177;50.068;8.156;2022-12-20T06:53:06;2.40;99.90
10263;DHT22;5177;50.068;8.156;2022-12-20T06:55:32;2.40;99.90
10263;DHT22;5177;50.068;8.156;2022-12-20T06:57:57;2.30;99.90
10263;DHT22;5177;50.068;8.156;2022-12-20T07:00:23;2.30;99.90
10263;DHT22;5177;50.068;8.156;2022-12-20T07:02:48;2.30;99.90
10263;DHT22;5177;50.068;8.156;2022-12-20T07:05:14;2.30;99.90
10263;DHT22;5177;50.068;8.156;2022-12-20T07:07:39;2.30;99.90
10263;DHT22;5177;50.068;8.156;2022-12-20T07:10:05;2.30;99.90
10263;DHT22;5177;50.068;8.156;2022-12-20T07:12:31;2.40;99.90
10263;DHT22;5177;50.068;8.156;2022-12-20T07:14:58;2.40;99.90
10263;DHT22;5177;50.068;8.156;2022-12-20T07:17:24;2.30;99.90
10263;DHT22;5177;50.068;8.156;2022-12-20T07:19:49;2.40;99.90
10263;DHT22;5177;50.068;8.156;2022-12-20T07:22:15;2.40;99.90
10263;DHT22;5177;50.068;8.156;2022-12-20T07:24:40;2.40;99.90
10263;DHT22;5177;50.068;8.156;2022-12-20T07:27:06;2.40;99.90
10263;DHT22;5177;50.068;8.156;2022-12-20T07:29:32;2.40;99.90
10263;DHT22;5177;50.068;8.156;2022-12-20T07:31:57;2.40;99.90
10263;DHT22;5177;50.068;8.156;2022-12-20T07:34:23;2.40;99.90
10263;DHT22;5177;50.068;8.156;2022-12-20T07:36:49;2.40;99.90
10263;DHT22;5177;50.068;8.156;2022-12-20T07:39:14;2.40;99.90
10263;DHT22;5177;50.068;8.156;2022-12-20T07:41:40;2.40;99.90
10263;DHT22;5177;50.068;8.156;2022-12-20T07:44:06;2.40;99.90
10263;DHT22;5177;50.068;8.156;2022-12-20T07:46:31;2.40;99.90
10263;DHT22;5177;50.068;8.156;2022-12-20T07:48:57;2.40;99.90
10263;DHT22;5177;50.068;8.156;2022-12-20T07:51:27;2.50;99.90
10263;DHT22;5177;50.068;8.156;2022-12-20T07:53:54;2.50;99.90
10263;DHT22;5177;50.068;8.156;2022-12-20T07:56:22;2.50;99.90
10263;DHT22;5177;50.068;8.156;2022-12-20T07:58:48;2.50;99.90
10263;DHT22;5177;50.068;8.156;2022-12-20T08:01:15;2.50;99.90
10263;DHT22;5177;50.068;8.156;2022-12-20T08:03:42;2.50;99.90
10263;DHT22;5177;50.068;8.156;2022-12-20T08:06:08;2.50;99.90
10263;DHT22;5177;50.068;8.156;2022-12-20T08:08:35;2.50;99.90
10263;DHT22;5177;50.068;8.156;2022-12-20T08:11:03;2.60;99.90
10263;DHT22;5177;50.068;8.156;2022-12-20T08:13:30;2.70;99.90
10263;DHT22;5177;50.068;8.156;2022-12-20T08:15:56;2.70;99.90
10263;DHT22;5177;50.068;8.156;2022-12-20T08:18:22;2.70;99.90
10263;DHT22;5177;50.068;8.156;2022-12-20T08:20:48;2.70;99.90
10263;DHT22;5177;50.068;8.156;2022-12-20T08:23:13;2.80;99.90
10263;DHT22;5177;50.068;8.156;2022-12-20T08:25:39;2.80;99.90
10263;DHT22;5177;50.068;8.156;2022-12-20T08:28:05;2.90;99.90
10263;DHT22;5177;50.068;8.156;2022-12-20T08:30:30;3.10;99.90
10263;DHT22;5177;50.068;8.156;2022-12-20T08:32:57;2.90;99.90
10263;DHT22;5177;50.068;8.156;2022-12-20T08:35:22;3.00;99.90
10263;DHT22;5177;50.068;8.156;2022-12-20T08:37:51;3.00;99.90
10263;DHT22;5177;50.068;8.156;2022-12-20T08:40:17;3.00;99.90
10263;DHT22;5177;50.068;8.156;2022-12-20T08:42:43;3.00;99.90
10263;DHT22;5177;50.068;8.156;2022-12-20T08:45:09;3.00;99.90
10263;DHT22;5177;50.068;8.156;2022-12-20T08:47:35;3.00;99.90
10263;DHT22;5177;50.068;8.156;2022-12-20T08:50:00;3.00;99.90
10263;DHT22;5177;50.068;8.156;2022-12-20T08:52:29;3.00;99.90
10263;DHT22;5177;50.068;8.156;2022-12-20T08:54:54;3.00;99.90
10263;DHT22;5177;50.068;8.156;2022-12-20T08:57:20;2.90;99.90
10263;DHT22;5177;50.068;8.156;2022-12-20T08:59:45;3.00;99.90
10263;DHT22;5177;50.068;8.156;2022-12-20T09:02:11;3.00;99.90
10263;DHT22;5177;50.068;8.156;2022-12-20T09:04:37;3.00;99.90
10263;DHT22;5177;50.068;8.156;2022-12-20T09:07:02;2.90;99.90
10263;DHT22;5177;50.068;8.156;2022-12-20T09:09:28;2.90;99.90
10263;DHT22;5177;50.068;8.156;2022-12-20T09:11:53;3.00;99.90
10263;DHT22;5177;50.068;8.156;2022-12-20T09:14:20;3.00;99.90
10263;DHT22;5177;50.068;8.156;2022-12-20T09:16:45;3.00;99.90
10263;DHT22;5177;50.068;8.156;2022-12-20T09:19:11;3.00;99.90
10263;DHT22;5177;50.068;8.156;2022-12-20T09:21:37;3.10;99.90
10263;DHT22;5177;50.068;8.156;2022-12-20T09:24:02;3.10;99.90
10263;DHT22;5177;50.068;8.156;2022-12-20T09:26:28;3.10;99.90
10263;DHT22;5177;50.068;8.156;2022-12-20T09:28:54;3.10;99.90
10263;DHT22;5177;50.068;8.156;2022-12-20T09:31:21;3.10;99.90
10263;DHT22;5177;50.068;8.156;2022-12-20T09:33:47;3.10;99.90
10263;DHT22;5177;50.068;8.156;2022-12-20T09:36:13;3.20;99.90
10263;DHT22;5177;50.068;8.156;2022-12-20T09:38:39;3.20;99.90
10263;DHT22;5177;50.068;8.156;2022-12-20T09:41:05;3.20;99.90
10263;DHT22;5177;50.068;8.156;2022-12-20T09:43:32;3.20;99.90
10263;DHT22;5177;50.068;8.156;2022-12-20T09:45:59;3.30;99.90
10263;DHT22;5177;50.068;8.156;2022-12-20T09:48:27;3.30;99.90
10263;DHT22;5177;50.068;8.156;2022-12-20T09:53:26;3.40;99.90
10263;DHT22;5177;50.068;8.156;2022-12-20T09:55:53;3.40;99.90
10263;DHT22;5177;50.068;8.156;2022-12-20T09:58:27;3.30;99.90
10263;DHT22;5177;50.068;8.156;2022-12-20T10:00:55;3.50;99.90
10263;DHT22;5177;50.068;8.156;2022-12-20T10:03:22;3.50;99.90
10263;DHT22;5177;50.068;8.156;2022-12-20T10:05:51;3.60;99.90
10263;DHT22;5177;50.068;8.156;2022-12-20T10:08:23;3.60;99.90
10263;DHT22;5177;50.068;8.156;2022-12-20T10:10:58;3.70;99.90
10263;DHT22;5177;50.068;8.156;2022-12-20T10:23:42;3.80;99.90
10263;DHT22;5177;50.068;8.156;2022-12-20T10:26:11;3.80;99.90
10263;DHT22;5177;50.068;8.156;2022-12-20T10:28:36;3.80;99.90
10263;DHT22;5177;50.068;8.156;2022-12-20T10:31:06;3.80;99.90
10263;DHT22;5177;50.068;8.156;2022-12-20T10:33:32;3.80;99.90
10263;DHT22;5177;50.068;8.156;2022-12-20T10:38:46;3.90;99.90
10263;DHT22;5177;50.068;8.156;2022-12-20T10:41:17;3.90;99.90
10263;DHT22;5177;50.068;8.156;2022-12-20T10:43:44;3.90;99.90
10263;DHT22;5177;50.068;8.156;2022-12-20T10:46:10;4.00;99.90
10263;DHT22;5177;50.068;8.156;2022-12-20T10:48:37;4.10;99.90
10263;DHT22;5177;50.068;8.156;2022-12-20T10:51:12;4.10;99.90
10263;DHT22;5177;50.068;8.156;2022-12-20T10:53:57;4.10;99.90
10263;DHT22;5177;50.068;8.156;2022-12-20T11:01:18;4.30;99.90
10263;DHT22;5177;50.068;8.156;2022-12-20T11:06:16;4.40;99.90
10263;DHT22;5177;50.068;8.156;2022-12-20T11:08:42;4.40;99.90
10263;DHT22;5177;50.068;8.156;2022-12-20T11:11:18;4.40;99.90
10263;DHT22;5177;50.068;8.156;2022-12-20T11:13:44;4.50;99.90
10263;DHT22;5177;50.068;8.156;2022-12-20T11:24:04;4.70;99.90
10263;DHT22;5177;50.068;8.156;2022-12-20T11:31:56;4.80;99.90
10263;DHT22;5177;50.068;8.156;2022-12-20T11:39:36;4.90;99.90
10263;DHT22;5177;50.068;8.156;2022-12-20T11:49:53;4.90;99.90
10263;DHT22;5177;50.068;8.156;2022-12-20T11:57:49;4.90;99.90
10263;DHT22;5177;50.068;8.156;2022-12-20T12:00:16;4.90;99.90
10263;DHT22;5177;50.068;8.156;2022-12-20T12:02:44;4.90;99.90
10263;DHT22;5177;50.068;8.156;2022-12-20T12:05:25;5.00;99.90
10263;DHT22;5177;50.068;8.156;2022-12-20T12:07:58;5.00;99.90
10263;DHT22;5177;50.068;8.156;2022-12-20T12:10:26;5.00;99.90
10263;DHT22;5177;50.068;8.156;2022-12-20T12:12:57;5.10;99.90
10263;DHT22;5177;50.068;8.156;2022-12-20T12:15:39;5.10;99.90
10263;DHT22;5177;50.068;8.156;2022-12-20T12:18:13;5.10;99.90
10263;DHT22;5177;50.068;8.156;2022-12-20T12:20:49;5.10;99.90
10263;DHT22;5177;50.068;8.156;2022-12-20T12:23:30;5.10;99.90
10263;DHT22;5177;50.068;8.156;2022-12-20T12:26:01;5.10;99.90
10263;DHT22;5177;50.068;8.156;2022-12-20T12:28:29;5.10;99.90
10263;DHT22;5177;50.068;8.156;2022-12-20T12:31:05;5.10;99.90
10263;DHT22;5177;50.068;8.156;2022-12-20T12:33:34;5.00;99.90
10263;DHT22;5177;50.068;8.156;2022-12-20T12:36:06;5.00;99.90
10263;DHT22;5177;50.068;8.156;2022-12-20T12:38:49;5.10;99.90
10263;DHT22;5177;50.068;8.156;2022-12-20T12:41:26;5.10;99.90
10263;DHT22;5177;50.068;8.156;2022-12-20T12:43:56;5.10;99.90
10263;DHT22;5177;50.068;8.156;2022-12-20T12:46:26;5.10;99.90
10263;DHT22;5177;50.068;8.156;2022-12-20T12:51:23;5.20;99.90
10263;DHT22;5177;50.068;8.156;2022-12-20T12:53:50;5.20;99.90
10263;DHT22;5177;50.068;8.156;2022-12-20T13:04:27;5.40;99.90
10263;DHT22;5177;50.068;8.156;2022-12-20T13:06:54;5.40;99.90
10263;DHT22;5177;50.068;8.156;2022-12-20T13:11:49;5.40;99.90
10263;DHT22;5177;50.068;8.156;2022-12-20T13:14:45;5.40;99.90
10263;DHT22;5177;50.068;8.156;2022-12-20T13:19:36;5.40;99.90
10263;DHT22;5177;50.068;8.156;2022-12-20T13:24:46;5.40;99.90
10263;DHT22;5177;50.068;8.156;2022-12-20T13:27:21;5.50;99.90
10263;DHT22;5177;50.068;8.156;2022-12-20T13:29:58;5.60;99.90
10263;DHT22;5177;50.068;8.156;2022-12-20T13:35:30;5.70;99.90
10263;DHT22;5177;50.068;8.156;2022-12-20T13:40:56;5.70;99.90
10263;DHT22;5177;50.068;8.156;2022-12-20T13:43:27;5.70;99.90
10263;DHT22;5177;50.068;8.156;2022-12-20T13:51:15;5.90;99.90
10263;DHT22;5177;50.068;8.156;2022-12-20T13:53:47;5.90;99.90
10263;DHT22;5177;50.068;8.156;2022-12-20T13:56:48;5.90;99.90
10263;DHT22;5177;50.068;8.156;2022-12-20T13:59:11;5.80;99.90
10263;DHT22;5177;50.068;8.156;2022-12-20T14:01:45;6.00;99.90
10263;DHT22;5177;50.068;8.156;2022-12-20T14:04:11;6.00;99.90
10263;DHT22;5177;50.068;8.156;2022-12-20T14:06:37;6.00;99.90
10263;DHT22;5177;50.068;8.156;2022-12-20T14:09:02;6.00;99.90
10263;DHT22;5177;50.068;8.156;2022-12-20T14:11:29;6.00;99.90
10263;DHT22;5177;50.068;8.156;2022-12-20T14:16:21;5.80;99.90
10263;DHT22;5177;50.068;8.156;2022-12-20T14:19:05;5.90;99.90
10263;DHT22;5177;50.068;8.156;2022-12-20T14:21:34;5.80;99.90
10263;DHT22;5177;50.068;8.156;2022-12-20T14:24:01;5.70;99.90
10263;DHT22;5177;50.068;8.156;2022-12-20T14:26:27;5.70;99.90
10263;DHT22;5177;50.068;8.156;2022-12-20T14:28:57;5.60;99.90
10263;DHT22;5177;50.068;8.156;2022-12-20T14:31:24;5.60;99.90
10263;DHT22;5177;50.068;8.156;2022-12-20T14:33:50;5.60;99.90
10263;DHT22;5177;50.068;8.156;2022-12-20T14:38:43;5.60;99.90
10263;DHT22;5177;50.068;8.156;2022-12-20T14:41:27;5.60;99.90
10263;DHT22;5177;50.068;8.156;2022-12-20T14:44:01;5.50;99.90
10263;DHT22;5177;50.068;8.156;2022-12-20T14:46:26;5.50;99.90
10263;DHT22;5177;50.068;8.156;2022-12-20T14:49:06;5.50;99.90
10263;DHT22;5177;50.068;8.156;2022-12-20T14:51:35;5.50;99.90
10263;DHT22;5177;50.068;8.156;2022-12-20T14:54:00;5.50;99.90
10263;DHT22;5177;50.068;8.156;2022-12-20T14:56:26;5.30;99.90
10263;DHT22;5177;50.068;8.156;2022-12-20T15:01:36;5.50;99.90
10263;DHT22;5177;50.068;8.156;2022-12-20T15:04:01;5.40;99.90
10263;DHT22;5177;50.068;8.156;2022-12-20T15:09:02;5.40;99.90
10263;DHT22;5177;50.068;8.156;2022-12-20T15:11:29;5.40;99.90
10263;DHT22;5177;50.068;8.156;2022-12-20T15:13:55;5.30;99.90
10263;DHT22;5177;50.068;8.156;2022-12-20T15:16:22;5.30;99.90
10263;DHT22;5177;50.068;8.156;2022-12-20T15:18:55;5.30;99.90
10263;DHT22;5177;50.068;8.156;2022-12-20T15:23:53;5.30;99.90
10263;DHT22;5177;50.068;8.156;2022-12-20T15:26:20;5.30;99.90
10263;DHT22;5177;50.068;8.156;2022-12-20T15:28:46;5.20;99.90
10263;DHT22;5177;50.068;8.156;2022-12-20T15:31:12;5.30;99.90
10263;DHT22;5177;50.068;8.156;2022-12-20T15:33:39;5.20;99.90
10263;DHT22;5177;50.068;8.156;2022-12-20T15:36:05;5.20;99.90
10263;DHT22;5177;50.068;8.156;2022-12-20T15:38:31;5.20;99.90
10263;DHT22;5177;50.068;8.156;2022-12-20T15:40:59;5.20;99.90
10263;DHT22;5177;50.068;8.156;2022-12-20T15:43:27;5.10;99.90
10263;DHT22;5177;50.068;8.156;2022-12-20T15:45:52;5.10;99.90
10263;DHT22;5177;50.068;8.156;2022-12-20T15:48:19;5.10;99.90
10263;DHT22;5177;50.068;8.156;2022-12-20T15:50:49;5.10;99.90
10263;DHT22;5177;50.068;8.156;2022-12-20T15:53:15;5.10;99.90
10263;DHT22;5177;50.068;8.156;2022-12-20T15:55:41;5.10;99.90
10263;DHT22;5177;50.068;8.156;2022-12-20T15:58:07;5.10;99.90
10263;DHT22;5177;50.068;8.156;2022-12-20T16:00:33;5.10;99.90
10263;DHT22;5177;50.068;8.156;2022-12-20T16:02:58;5.00;99.90
10263;DHT22;5177;50.068;8.156;2022-12-20T16:05:25;5.00;99.90
10263;DHT22;5177;50.068;8.156;2022-12-20T16:07:51;5.00;99.90
10263;DHT22;5177;50.068;8.156;2022-12-20T16:10:16;5.00;99.90
10263;DHT22;5177;50.068;8.156;2022-12-20T16:12:42;5.00;99.90
10263;DHT22;5177;50.068;8.156;2022-12-20T16:15:12;4.90;99.90
10263;DHT22;5177;50.068;8.156;2022-12-20T16:17:43;5.00;99.90
10263;DHT22;5177;50.068;8.156;2022-12-20T16:20:08;5.00;99.90
10263;DHT22;5177;50.068;8.156;2022-12-20T16:22:35;5.00;99.90
10263;DHT22;5177;50.068;8.156;2022-12-20T16:25:00;4.90;99.90
10263;DHT22;5177;50.068;8.156;2022-12-20T16:27:26;5.00;99.90
10263;DHT22;5177;50.068;8.156;2022-12-20T16:29:51;5.00;99.90
10263;DHT22;5177;50.068;8.156;2022-12-20T16:32:18;5.00;99.90
10263;DHT22;5177;50.068;8.156;2022-12-20T16:34:44;4.90;99.90
10263;DHT22;5177;50.068;8.156;2022-12-20T16:37:10;4.90;99.90
10263;DHT22;5177;50.068;8.156;2022-12-20T16:39:38;4.90;99.90
10263;DHT22;5177;50.068;8.156;2022-12-20T16:42:08;5.00;99.90
10263;DHT22;5177;50.068;8.156;2022-12-20T16:44:34;5.00;99.90
10263;DHT22;5177;50.068;8.156;2022-12-20T16:46:59;4.90;99.90
10263;DHT22;5177;50.068;8.156;2022-12-20T16:49:25;4.90;99.90
10263;DHT22;5177;50.068;8.156;2022-12-20T16:51:51;4.90;99.90
10263;DHT22;5177;50.068;8.156;2022-12-20T16:54:18;5.00;99.90
10263;DHT22;5177;50.068;8.156;2022-12-20T16:56:45;4.90;99.90
10263;DHT22;5177;50.068;8.156;2022-12-20T16:59:11;5.00;99.90
10263;DHT22;5177;50.068;8.156;2022-12-20T17:01:37;5.00;99.90
10263;DHT22;5177;50.068;8.156;2022-12-20T17:04:04;4.90;99.90
10263;DHT22;5177;50.068;8.156;2022-12-20T17:06:30;4.90;99.90
10263;DHT22;5177;50.068;8.156;2022-12-20T17:08:55;5.00;99.90
10263;DHT22;5177;50.068;8.156;2022-12-20T17:11:24;4.90;99.90
10263;DHT22;5177;50.068;8.156;2022-12-20T17:13:51;5.00;99.90
10263;DHT22;5177;50.068;8.156;2022-12-20T17:16:17;4.90;99.90
10263;DHT22;5177;50.068;8.156;2022-12-20T17:18:43;4.90;99.90
10263;DHT22;5177;50.068;8.156;2022-12-20T17:21:52;5.00;99.90
10263;DHT22;5177;50.068;8.156;2022-12-20T17:23:58;5.00;99.90
10263;DHT22;5177;50.068;8.156;2022-12-20T17:26:24;5.00;99.90
10263;DHT22;5177;50.068;8.156;2022-12-20T17:28:51;5.00;99.90
10263;DHT22;5177;50.068;8.156;2022-12-20T17:31:22;5.00;99.90
10263;DHT22;5177;50.068;8.156;2022-12-20T17:33:48;5.00;99.90
10263;DHT22;5177;50.068;8.156;2022-12-20T17:36:14;4.90;99.90
10263;DHT22;5177;50.068;8.156;2022-12-20T17:38:39;4.90;99.90
10263;DHT22;5177;50.068;8.156;2022-12-20T17:41:07;4.90;99.90
10263;DHT22;5177;50.068;8.156;2022-12-20T17:43:34;5.00;99.90
10263;DHT22;5177;50.068;8.156;2022-12-20T17:46:00;4.90;99.90
10263;DHT22;5177;50.068;8.156;2022-12-20T17:48:25;4.90;99.90
10263;DHT22;5177;50.068;8.156;2022-12-20T17:50:51;5.00;99.90
10263;DHT22;5177;50.068;8.156;2022-12-20T17:53:16;4.90;99.90
10263;DHT22;5177;50.068;8.156;2022-12-20T17:55:42;4.90;99.90
10263;DHT22;5177;50.068;8.156;2022-12-20T17:58:07;4.90;99.90
10263;DHT22;5177;50.068;8.156;2022-12-20T18:00:33;4.90;99.90